sensor_id;sensor_type;location;lat;lon;timestamp;pressure;altitude;pressure_sealevel;temperature;humidity
66588;BME280;53446;50.076;8.198;2024-03-17T00:01:59;100337.59;;;7.79;100.00
66588;BME280;53446;50.076;8.198;2024-03-17T00:04:00;100323.28;;;7.79;100.00
66588;BME280;53446;50.076;8.198;2024-03-17T00:06:01;100327.78;;;7.78;100.00
66588;BME280;53446;50.076;8.198;2024-03-17T00:08:03;100327.78;;;7.78;100.00
66588;BME280;53446;50.076;8.198;2024-03-17T00:10:06;100322.34;;;7.80;100.00
66588;BME280;53446;50.076;8.198;2024-03-17T00:12:10;100329.53;;;7.79;100.00
66588;BME280;53446;50.076;8.198;2024-03-17T00:14:11;100332.31;;;7.78;100.00
66588;BME280;53446;50.076;8.198;2024-03-17T00:16:11;100327.00;;;7.76;100.00
66588;BME280;53446;50.076;8.198;2024-03-17T00:18:13;100328.75;;;7.77;100.00
66588;BME280;53446;50.076;8.198;2024-03-17T00:20:14;100333.25;;;7.77;100.00
66588;BME280;53446;50.076;8.198;2024-03-17T00:22:19;100326.13;;;7.76;100.00
66588;BME280;53446;50.076;8.198;2024-03-17T00:24:20;100324.41;;;7.75;100.00
66588;BME280;53446;50.076;8.198;2024-03-17T00:26:20;100314.56;;;7.74;100.00
66588;BME280;53446;50.076;8.198;2024-03-17T00:28:20;100320.97;;;7.71;100.00
66588;BME280;53446;50.076;8.198;2024-03-17T00:30:21;100329.91;;;7.72;100.00
66588;BME280;53446;50.076;8.198;2024-03-17T00:32:21;100314.72;;;7.71;100.00
66588;BME280;53446;50.076;8.198;2024-03-17T00:34:22;100319.16;;;7.72;100.00
66588;BME280;53446;50.076;8.198;2024-03-17T00:36:23;100318.28;;;7.71;100.00
66588;BME280;53446;50.076;8.198;2024-03-17T00:38:23;100319.16;;;7.72;100.00
66588;BME280;53446;50.076;8.198;2024-03-17T00:40:23;100306.66;;;7.71;100.00
66588;BME280;53446;50.076;8.198;2024-03-17T00:42:24;100310.28;;;7.70;100.00
66588;BME280;53446;50.076;8.198;2024-03-17T00:44:24;100310.44;;;7.67;100.00
66588;BME280;53446;50.076;8.198;2024-03-17T00:46:24;100315.97;;;7.63;100.00
66588;BME280;53446;50.076;8.198;2024-03-17T00:48:24;100309.81;;;7.61;100.00
66588;BME280;53446;50.076;8.198;2024-03-17T00:50:25;100311.69;;;7.59;100.00
66588;BME280;53446;50.076;8.198;2024-03-17T00:52:25;100304.63;;;7.57;100.00
66588;BME280;53446;50.076;8.198;2024-03-17T00:54:27;100300.44;;;7.51;100.00
66588;BME280;53446;50.076;8.198;2024-03-17T00:56:28;100298.91;;;7.46;100.00
66588;BME280;53446;50.076;8.198;2024-03-17T00:58:28;100299.28;;;7.38;100.00
66588;BME280;53446;50.076;8.198;2024-03-17T01:00:29;100304.97;;;7.32;100.00
66588;BME280;53446;50.076;8.198;2024-03-17T01:02:29;100299.97;;;7.24;100.00
66588;BME280;53446;50.076;8.198;2024-03-17T01:04:29;100296.69;;;7.17;100.00
66588;BME280;53446;50.076;8.198;2024-03-17T01:06:33;100297.00;;;7.11;100.00
66588;BME280;53446;50.076;8.198;2024-03-17T01:08:34;100291.91;;;7.05;100.00
66588;BME280;53446;50.076;8.198;2024-03-17T01:10:37;100282.31;;;6.99;100.00
66588;BME280;53446;50.076;8.198;2024-03-17T01:12:37;100288.78;;;6.95;100.00
66588;BME280;53446;50.076;8.198;2024-03-17T01:14:38;100280.06;;;6.90;100.00
66588;BME280;53446;50.076;8.198;2024-03-17T01:16:38;100276.63;;;6.87;100.00
66588;BME280;53446;50.076;8.198;2024-03-17T01:18:38;100283.09;;;6.83;100.00
66588;BME280;53446;50.076;8.198;2024-03-17T01:20:39;100274.38;;;6.77;100.00
66588;BME280;53446;50.076;8.198;2024-03-17T01:22:40;100272.78;;;6.73;100.00
66588;BME280;53446;50.076;8.198;2024-03-17T01:24:40;100271.25;;;6.68;100.00
66588;BME280;53446;50.076;8.198;2024-03-17T01:26:46;100265.28;;;6.61;100.00
66588;BME280;53446;50.076;8.198;2024-03-17T01:28:46;100272.63;;;6.57;100.00
66588;BME280;53446;50.076;8.198;2024-03-17T01:30:46;100268.31;;;6.53;100.00
66588;BME280;53446;50.076;8.198;2024-03-17T01:32:48;100263.16;;;6.49;100.00
66588;BME280;53446;50.076;8.198;2024-03-17T01:34:49;100258.84;;;6.45;100.00
66588;BME280;53446;50.076;8.198;2024-03-17T01:36:49;100261.69;;;6.42;100.00
66588;BME280;53446;50.076;8.198;2024-03-17T01:38:49;100265.44;;;6.38;100.00
66588;BME280;53446;50.076;8.198;2024-03-17T01:40:50;100258.50;;;6.33;100.00
66588;BME280;53446;50.076;8.198;2024-03-17T01:42:50;100256.03;;;6.29;100.00
66588;BME280;53446;50.076;8.198;2024-03-17T01:44:50;100257.94;;;6.25;100.00
66588;BME280;53446;50.076;8.198;2024-03-17T01:46:51;100256.34;;;6.21;100.00
66588;BME280;53446;50.076;8.198;2024-03-17T01:48:51;100244.88;;;6.18;100.00
66588;BME280;53446;50.076;8.198;2024-03-17T01:50:53;100246.81;;;6.14;100.00
66588;BME280;53446;50.076;8.198;2024-03-17T01:52:56;100246.16;;;6.09;100.00
66588;BME280;53446;50.076;8.198;2024-03-17T01:54:59;100243.59;;;6.06;100.00
66588;BME280;53446;50.076;8.198;2024-03-17T01:57:00;100238.44;;;6.01;100.00
66588;BME280;53446;50.076;8.198;2024-03-17T01:59:01;100240.31;;;5.99;100.00
66588;BME280;53446;50.076;8.198;2024-03-17T02:01:01;100236.81;;;5.97;100.00
66588;BME280;53446;50.076;8.198;2024-03-17T02:03:04;100242.28;;;5.96;100.00
66588;BME280;53446;50.076;8.198;2024-03-17T02:05:04;100229.84;;;5.93;100.00
66588;BME280;53446;50.076;8.198;2024-03-17T02:07:05;100238.88;;;5.90;100.00
66588;BME280;53446;50.076;8.198;2024-03-17T02:09:05;100241.69;;;5.87;100.00
66588;BME280;53446;50.076;8.198;2024-03-17T02:11:23;100244.53;;;5.84;100.00
66588;BME280;53446;50.076;8.198;2024-03-17T02:13:24;100242.91;;;5.80;100.00
66588;BME280;53446;50.076;8.198;2024-03-17T02:15:24;100235.00;;;5.77;100.00
66588;BME280;53446;50.076;8.198;2024-03-17T02:17:25;100236.91;;;5.73;100.00
66588;BME280;53446;50.076;8.198;2024-03-17T02:19:25;100233.50;;;5.70;100.00
66588;BME280;53446;50.076;8.198;2024-03-17T02:21:28;100243.44;;;5.68;100.00
66588;BME280;53446;50.076;8.198;2024-03-17T02:23:28;100236.31;;;5.67;100.00
66588;BME280;53446;50.076;8.198;2024-03-17T02:25:29;100235.53;;;5.65;100.00
66588;BME280;53446;50.076;8.198;2024-03-17T02:27:29;100237.41;;;5.63;100.00
66588;BME280;53446;50.076;8.198;2024-03-17T02:29:29;100236.59;;;5.61;100.00
66588;BME280;53446;50.076;8.198;2024-03-17T02:31:29;100225.03;;;5.59;100.00
66588;BME280;53446;50.076;8.198;2024-03-17T02:33:30;100230.41;;;5.59;100.00
66588;BME280;53446;50.076;8.198;2024-03-17T02:35:30;100229.53;;;5.58;100.00
66588;BME280;53446;50.076;8.198;2024-03-17T02:37:31;100226.78;;;5.60;100.00
66588;BME280;53446;50.076;8.198;2024-03-17T02:39:31;100222.31;;;5.60;100.00
66588;BME280;53446;50.076;8.198;2024-03-17T02:41:34;100224.91;;;5.62;100.00
66588;BME280;53446;50.076;8.198;2024-03-17T02:43:34;100219.63;;;5.60;100.00
66588;BME280;53446;50.076;8.198;2024-03-17T02:45:35;100213.44;;;5.58;100.00
66588;BME280;53446;50.076;8.198;2024-03-17T02:47:36;100215.25;;;5.58;100.00
66588;BME280;53446;50.076;8.198;2024-03-17T02:49:36;100212.69;;;5.55;100.00
66588;BME280;53446;50.076;8.198;2024-03-17T02:51:37;100210.09;;;5.53;100.00
66588;BME280;53446;50.076;8.198;2024-03-17T02:53:37;100210.16;;;5.51;100.00
66588;BME280;53446;50.076;8.198;2024-03-17T02:55:37;100211.16;;;5.49;100.00
66588;BME280;53446;50.076;8.198;2024-03-17T02:57:38;100212.22;;;5.45;100.00
66588;BME280;53446;50.076;8.198;2024-03-17T02:59:39;100214.06;;;5.43;100.00
66588;BME280;53446;50.076;8.198;2024-03-17T03:01:39;100216.84;;;5.41;100.00
66588;BME280;53446;50.076;8.198;2024-03-17T03:03:40;100220.44;;;5.40;100.00
66588;BME280;53446;50.076;8.198;2024-03-17T03:05:40;100218.72;;;5.39;100.00
66588;BME280;53446;50.076;8.198;2024-03-17T03:07:40;100215.22;;;5.37;100.00
66588;BME280;53446;50.076;8.198;2024-03-17T03:09:41;100210.00;;;5.34;100.00
66588;BME280;53446;50.076;8.198;2024-03-17T03:11:41;100219.03;;;5.32;100.00
66588;BME280;53446;50.076;8.198;2024-03-17T03:13:42;100219.09;;;5.30;100.00
66588;BME280;53446;50.076;8.198;2024-03-17T03:15:43;100223.66;;;5.28;100.00
66588;BME280;53446;50.076;8.198;2024-03-17T03:17:43;100224.59;;;5.27;100.00
66588;BME280;53446;50.076;8.198;2024-03-17T03:19:44;100222.84;;;5.26;100.00
66588;BME280;53446;50.076;8.198;2024-03-17T03:21:44;100230.00;;;5.25;100.00
66588;BME280;53446;50.076;8.198;2024-03-17T03:23:44;100224.66;;;5.25;100.00
66588;BME280;53446;50.076;8.198;2024-03-17T03:25:45;100222.97;;;5.23;100.00
66588;BME280;53446;50.076;8.198;2024-03-17T03:27:47;100222.97;;;5.23;100.00
66588;BME280;53446;50.076;8.198;2024-03-17T03:29:48;100222.97;;;5.23;100.00
66588;BME280;53446;50.076;8.198;2024-03-17T03:31:48;100223.69;;;5.26;100.00
66588;BME280;53446;50.076;8.198;2024-03-17T03:33:48;100223.66;;;5.28;100.00
66588;BME280;53446;50.076;8.198;2024-03-17T03:35:48;100226.34;;;5.28;100.00
66588;BME280;53446;50.076;8.198;2024-03-17T03:37:49;100228.16;;;5.27;100.00
66588;BME280;53446;50.076;8.198;2024-03-17T03:39:50;100225.66;;;5.23;100.00
66588;BME280;53446;50.076;8.198;2024-03-17T03:41:51;100226.56;;;5.22;100.00
66588;BME280;53446;50.076;8.198;2024-03-17T03:43:52;100223.97;;;5.20;100.00
66588;BME280;53446;50.076;8.198;2024-03-17T03:45:52;100226.72;;;5.19;100.00
66588;BME280;53446;50.076;8.198;2024-03-17T03:47:53;100231.19;;;5.18;100.00
66588;BME280;53446;50.076;8.198;2024-03-17T03:49:53;100231.19;;;5.18;100.00
66588;BME280;53446;50.076;8.198;2024-03-17T03:51:53;100233.94;;;5.17;100.00
66588;BME280;53446;50.076;8.198;2024-03-17T03:53:54;100229.53;;;5.16;100.00
66588;BME280;53446;50.076;8.198;2024-03-17T03:55:55;100232.25;;;5.14;100.00
66588;BME280;53446;50.076;8.198;2024-03-17T03:57:55;100235.03;;;5.13;100.00
66588;BME280;53446;50.076;8.198;2024-03-17T03:59:56;100235.94;;;5.12;100.00
66588;BME280;53446;50.076;8.198;2024-03-17T04:01:57;100239.56;;;5.11;100.00
66588;BME280;53446;50.076;8.198;2024-03-17T04:03:58;100236.81;;;5.12;100.00
66588;BME280;53446;50.076;8.198;2024-03-17T04:06:09;100238.56;;;5.13;100.00
66588;BME280;53446;50.076;8.198;2024-03-17T04:08:10;100237.56;;;5.16;100.00
66588;BME280;53446;50.076;8.198;2024-03-17T04:10:10;100236.56;;;5.18;100.00
66588;BME280;53446;50.076;8.198;2024-03-17T04:12:11;100229.38;;;5.19;100.00
66588;BME280;53446;50.076;8.198;2024-03-17T04:14:12;100239.19;;;5.20;100.00
66588;BME280;53446;50.076;8.198;2024-03-17T04:16:12;100235.50;;;5.22;100.00
66588;BME280;53446;50.076;8.198;2024-03-17T04:18:12;100239.78;;;5.26;100.00
66588;BME280;53446;50.076;8.198;2024-03-17T04:20:13;100238.78;;;5.29;100.00
66588;BME280;53446;50.076;8.198;2024-03-17T04:22:14;100229.81;;;5.30;100.00
66588;BME280;53446;50.076;8.198;2024-03-17T04:24:15;100227.97;;;5.32;100.00
66588;BME280;53446;50.076;8.198;2024-03-17T04:26:15;100227.97;;;5.32;100.00
66588;BME280;53446;50.076;8.198;2024-03-17T04:28:15;100218.97;;;5.33;100.00
66588;BME280;53446;50.076;8.198;2024-03-17T04:30:16;100218.97;;;5.33;100.00
66588;BME280;53446;50.076;8.198;2024-03-17T04:32:16;100225.13;;;5.35;100.00
66588;BME280;53446;50.076;8.198;2024-03-17T04:34:16;100225.09;;;5.37;100.00
66588;BME280;53446;50.076;8.198;2024-03-17T04:36:16;100223.22;;;5.39;100.00
66588;BME280;53446;50.076;8.198;2024-03-17T04:38:17;100220.44;;;5.40;100.00
66588;BME280;53446;50.076;8.198;2024-03-17T04:40:19;100223.94;;;5.42;100.00
66588;BME280;53446;50.076;8.198;2024-03-17T04:42:19;100225.56;;;5.46;100.00
66588;BME280;53446;50.076;8.198;2024-03-17T04:44:19;100220.06;;;5.49;100.00
66588;BME280;53446;50.076;8.198;2024-03-17T04:46:20;100224.38;;;5.54;100.00
66588;BME280;53446;50.076;8.198;2024-03-17T04:48:20;100234.91;;;5.58;100.00
66588;BME280;53446;50.076;8.198;2024-03-17T04:50:20;100234.72;;;5.63;100.00
66588;BME280;53446;50.076;8.198;2024-03-17T04:52:21;100236.31;;;5.67;100.00
66588;BME280;53446;50.076;8.198;2024-03-17T04:54:21;100236.19;;;5.70;100.00
66588;BME280;53446;50.076;8.198;2024-03-17T04:56:22;100229.75;;;5.74;100.00
66588;BME280;53446;50.076;8.198;2024-03-17T04:58:22;100235.84;;;5.78;100.00
66588;BME280;53446;50.076;8.198;2024-03-17T05:00:22;100225.88;;;5.81;100.00
66588;BME280;53446;50.076;8.198;2024-03-17T05:02:22;100231.91;;;5.86;100.00
66588;BME280;53446;50.076;8.198;2024-03-17T05:04:23;100233.59;;;5.89;100.00
66588;BME280;53446;50.076;8.198;2024-03-17T05:06:23;100230.69;;;5.93;100.00
66588;BME280;53446;50.076;8.198;2024-03-17T05:08:24;100233.28;;;5.97;100.00
66588;BME280;53446;50.076;8.198;2024-03-17T05:10:24;100223.34;;;5.99;100.00
66588;BME280;53446;50.076;8.198;2024-03-17T05:12:24;100224.88;;;6.04;100.00
66588;BME280;53446;50.076;8.198;2024-03-17T05:14:25;100223.84;;;6.07;100.00
66588;BME280;53446;50.076;8.198;2024-03-17T05:16:26;100220.25;;;6.08;100.00
66588;BME280;53446;50.076;8.198;2024-03-17T05:18:29;100220.16;;;6.09;100.00
66588;BME280;53446;50.076;8.198;2024-03-17T05:20:32;100223.75;;;6.10;100.00
66588;BME280;53446;50.076;8.198;2024-03-17T05:22:33;100225.53;;;6.09;100.00
66588;BME280;53446;50.076;8.198;2024-03-17T05:24:33;100221.06;;;6.10;100.00
66588;BME280;53446;50.076;8.198;2024-03-17T05:26:33;100227.34;;;6.09;100.00
66588;BME280;53446;50.076;8.198;2024-03-17T05:28:33;100223.81;;;6.08;100.00
66588;BME280;53446;50.076;8.198;2024-03-17T05:30:35;100226.44;;;6.10;100.00
66588;BME280;53446;50.076;8.198;2024-03-17T05:32:36;100230.78;;;6.12;100.00
66588;BME280;53446;50.076;8.198;2024-03-17T05:34:37;100236.06;;;6.14;100.00
66588;BME280;53446;50.076;8.198;2024-03-17T05:36:37;100234.19;;;6.16;100.00
66588;BME280;53446;50.076;8.198;2024-03-17T05:38:38;100234.19;;;6.16;100.00
66588;BME280;53446;50.076;8.198;2024-03-17T05:40:38;100224.25;;;6.18;100.00
66588;BME280;53446;50.076;8.198;2024-03-17T05:42:41;100221.50;;;6.20;100.00
66588;BME280;53446;50.076;8.198;2024-03-17T05:44:43;100223.25;;;6.21;100.00
66588;BME280;53446;50.076;8.198;2024-03-17T05:46:50;100217.88;;;6.21;100.00
66588;BME280;53446;50.076;8.198;2024-03-17T05:48:53;100224.13;;;6.21;100.00
66588;BME280;53446;50.076;8.198;2024-03-17T05:50:53;100228.56;;;6.22;100.00
66588;BME280;53446;50.076;8.198;2024-03-17T05:52:53;100226.03;;;6.19;100.00
66588;BME280;53446;50.076;8.198;2024-03-17T05:54:53;100228.75;;;6.18;100.00
66588;BME280;53446;50.076;8.198;2024-03-17T05:56:55;100228.00;;;6.14;100.00
66588;BME280;53446;50.076;8.198;2024-03-17T05:58:56;100224.56;;;6.12;100.00
66588;BME280;53446;50.076;8.198;2024-03-17T06:00:56;100232.66;;;6.10;100.00
66588;BME280;53446;50.076;8.198;2024-03-17T06:02:58;100224.66;;;6.09;100.00
66588;BME280;53446;50.076;8.198;2024-03-17T06:04:59;100231.00;;;6.08;100.00
66588;BME280;53446;50.076;8.198;2024-03-17T06:07:04;100223.84;;;6.07;100.00
66588;BME280;53446;50.076;8.198;2024-03-17T06:09:04;100225.78;;;6.05;100.00
66588;BME280;53446;50.076;8.198;2024-03-17T06:11:09;100219.59;;;6.03;100.00
66588;BME280;53446;50.076;8.198;2024-03-17T06:13:10;100219.59;;;6.03;100.00
66588;BME280;53446;50.076;8.198;2024-03-17T06:15:15;100225.81;;;6.03;100.00
66588;BME280;53446;50.076;8.198;2024-03-17T06:17:16;100230.91;;;6.09;100.00
66588;BME280;53446;50.076;8.198;2024-03-17T06:19:16;100233.38;;;6.14;100.00
66588;BME280;53446;50.076;8.198;2024-03-17T06:21:17;100226.75;;;6.23;100.00
66588;BME280;53446;50.076;8.198;2024-03-17T06:23:17;100218.31;;;6.30;100.00
66588;BME280;53446;50.076;8.198;2024-03-17T06:25:18;100212.53;;;6.40;100.00
66588;BME280;53446;50.076;8.198;2024-03-17T06:27:18;100213.88;;;6.50;100.00
66588;BME280;53446;50.076;8.198;2024-03-17T06:29:18;100217.88;;;6.60;100.00
66588;BME280;53446;50.076;8.198;2024-03-17T06:31:19;100204.72;;;6.73;100.00
66588;BME280;53446;50.076;8.198;2024-03-17T06:33:19;100215.75;;;6.86;100.00
66588;BME280;53446;50.076;8.198;2024-03-17T06:35:20;100205.50;;;6.94;100.00
66588;BME280;53446;50.076;8.198;2024-03-17T06:37:25;100211.38;;;7.02;100.00
66588;BME280;53446;50.076;8.198;2024-03-17T06:39:26;100214.72;;;7.07;100.00
66588;BME280;53446;50.076;8.198;2024-03-17T06:41:26;100213.53;;;7.13;100.00
66588;BME280;53446;50.076;8.198;2024-03-17T06:43:26;100212.44;;;7.17;100.00
66588;BME280;53446;50.076;8.198;2024-03-17T06:45:27;100210.50;;;7.20;100.00
66588;BME280;53446;50.076;8.198;2024-03-17T06:47:27;100208.56;;;7.22;100.00
66588;BME280;53446;50.076;8.198;2024-03-17T06:49:27;100201.16;;;7.28;100.00
66588;BME280;53446;50.076;8.198;2024-03-17T06:51:27;100200.69;;;7.37;100.00
66588;BME280;53446;50.076;8.198;2024-03-17T06:53:28;100201.97;;;7.47;100.00
66588;BME280;53446;50.076;8.198;2024-03-17T06:55:28;100195.34;;;7.54;100.00
66588;BME280;53446;50.076;8.198;2024-03-17T06:57:29;100193.09;;;7.62;100.00
66588;BME280;53446;50.076;8.198;2024-03-17T06:59:32;100190.91;;;7.71;100.00
66588;BME280;53446;50.076;8.198;2024-03-17T07:01:33;100189.47;;;7.81;100.00
66588;BME280;53446;50.076;8.198;2024-03-17T07:03:34;100188.00;;;7.91;100.00
66588;BME280;53446;50.076;8.198;2024-03-17T07:05:34;100183.13;;;7.99;100.00
66588;BME280;53446;50.076;8.198;2024-03-17T07:07:34;100192.44;;;8.10;100.00
66588;BME280;53446;50.076;8.198;2024-03-17T07:09:35;100189.06;;;8.22;100.00
66588;BME280;53446;50.076;8.198;2024-03-17T07:11:36;100193.66;;;8.37;100.00
66588;BME280;53446;50.076;8.198;2024-03-17T07:13:37;100189.50;;;8.47;100.00
66588;BME280;53446;50.076;8.198;2024-03-17T07:15:38;100188.84;;;8.60;100.00
66588;BME280;53446;50.076;8.198;2024-03-17T07:17:38;100189.03;;;8.73;100.00
66588;BME280;53446;50.076;8.198;2024-03-17T07:19:39;100193.53;;;8.88;100.00
66588;BME280;53446;50.076;8.198;2024-03-17T07:21:39;100188.53;;;8.98;100.00
66588;BME280;53446;50.076;8.198;2024-03-17T07:23:39;100189.53;;;9.11;100.00
66588;BME280;53446;50.076;8.198;2024-03-17T07:25:39;100186.91;;;9.25;100.00
66588;BME280;53446;50.076;8.198;2024-03-17T07:27:40;100182.53;;;9.39;100.00
66588;BME280;53446;50.076;8.198;2024-03-17T07:29:40;100180.75;;;9.53;100.00
66588;BME280;53446;50.076;8.198;2024-03-17T07:31:40;100179.16;;;9.65;100.00
66588;BME280;53446;50.076;8.198;2024-03-17T07:33:40;100178.59;;;9.74;100.00
66588;BME280;53446;50.076;8.198;2024-03-17T07:36:07;100183.44;;;9.84;100.00
66588;BME280;53446;50.076;8.198;2024-03-17T07:38:08;100172.09;;;9.93;100.00
66588;BME280;53446;50.076;8.198;2024-03-17T07:40:09;100175.00;;;10.04;100.00
66588;BME280;53446;50.076;8.198;2024-03-17T07:42:10;100178.09;;;10.12;100.00
66588;BME280;53446;50.076;8.198;2024-03-17T07:44:13;100173.75;;;10.24;100.00
66588;BME280;53446;50.076;8.198;2024-03-17T07:46:13;100184.88;;;10.34;100.00
66588;BME280;53446;50.076;8.198;2024-03-17T07:48:14;100180.66;;;10.44;100.00
66588;BME280;53446;50.076;8.198;2024-03-17T07:50:14;100173.47;;;10.57;100.00
66588;BME280;53446;50.076;8.198;2024-03-17T07:52:14;100178.78;;;10.73;100.00
66588;BME280;53446;50.076;8.198;2024-03-17T07:54:15;100185.56;;;10.93;100.00
66588;BME280;53446;50.076;8.198;2024-03-17T07:56:16;100183.44;;;11.13;100.00
66588;BME280;53446;50.076;8.198;2024-03-17T07:58:16;100183.25;;;11.29;100.00
66588;BME280;53446;50.076;8.198;2024-03-17T08:00:16;100180.16;;;11.48;100.00
66588;BME280;53446;50.076;8.198;2024-03-17T08:02:17;100179.59;;;11.70;100.00
66588;BME280;53446;50.076;8.198;2024-03-17T08:04:17;100174.88;;;11.86;100.00
66588;BME280;53446;50.076;8.198;2024-03-17T08:06:17;100179.91;;;12.05;100.00
66588;BME280;53446;50.076;8.198;2024-03-17T08:08:18;100177.09;;;12.19;100.00
66588;BME280;53446;50.076;8.198;2024-03-17T08:10:19;100173.16;;;12.23;100.00
66588;BME280;53446;50.076;8.198;2024-03-17T08:12:19;100183.47;;;12.05;100.00
66588;BME280;53446;50.076;8.198;2024-03-17T08:14:19;100184.97;;;11.97;100.00
66588;BME280;53446;50.076;8.198;2024-03-17T08:16:19;100187.13;;;11.92;100.00
66588;BME280;53446;50.076;8.198;2024-03-17T08:18:20;100191.63;;;11.78;100.00
66588;BME280;53446;50.076;8.198;2024-03-17T08:20:20;100195.63;;;11.60;100.00
66588;BME280;53446;50.076;8.198;2024-03-17T08:22:20;100191.22;;;11.44;100.00
66588;BME280;53446;50.076;8.198;2024-03-17T08:24:20;100186.63;;;11.32;100.00
66588;BME280;53446;50.076;8.198;2024-03-17T08:26:21;100191.53;;;11.40;100.00
66588;BME280;53446;50.076;8.198;2024-03-17T08:28:22;100185.53;;;11.62;100.00
66588;BME280;53446;50.076;8.198;2024-03-17T08:30:22;100191.41;;;11.69;100.00
66588;BME280;53446;50.076;8.198;2024-03-17T08:32:23;100187.81;;;11.68;100.00
66588;BME280;53446;50.076;8.198;2024-03-17T08:34:23;100188.88;;;11.53;100.00
66588;BME280;53446;50.076;8.198;2024-03-17T08:36:23;100194.69;;;11.47;100.00
66588;BME280;53446;50.076;8.198;2024-03-17T08:38:25;100191.63;;;11.38;100.00
66588;BME280;53446;50.076;8.198;2024-03-17T08:40:27;100187.28;;;11.36;100.00
66588;BME280;53446;50.076;8.198;2024-03-17T08:42:28;100189.28;;;11.47;100.00
66588;BME280;53446;50.076;8.198;2024-03-17T08:44:28;100180.84;;;11.51;100.00
66588;BME280;53446;50.076;8.198;2024-03-17T08:46:28;100181.31;;;11.58;100.00
66588;BME280;53446;50.076;8.198;2024-03-17T08:48:30;100175.56;;;11.62;100.00
66588;BME280;53446;50.076;8.198;2024-03-17T08:50:30;100173.50;;;11.66;100.00
66588;BME280;53446;50.076;8.198;2024-03-17T08:52:34;100167.22;;;11.65;100.00
66588;BME280;53446;50.076;8.198;2024-03-17T08:54:34;100160.97;;;11.78;100.00
66588;BME280;53446;50.076;8.198;2024-03-17T08:56:35;100164.06;;;11.99;100.00
66588;BME280;53446;50.076;8.198;2024-03-17T08:58:35;100169.38;;;12.26;100.00
66588;BME280;53446;50.076;8.198;2024-03-17T09:00:36;100172.50;;;12.45;100.00
66588;BME280;53446;50.076;8.198;2024-03-17T09:02:36;100163.38;;;12.59;100.00
66588;BME280;53446;50.076;8.198;2024-03-17T09:04:37;100166.94;;;12.60;100.00
66588;BME280;53446;50.076;8.198;2024-03-17T09:06:37;100173.56;;;12.68;100.00
66588;BME280;53446;50.076;8.198;2024-03-17T09:08:37;100166.72;;;12.76;100.00
66588;BME280;53446;50.076;8.198;2024-03-17T09:10:41;100175.38;;;12.81;100.00
66588;BME280;53446;50.076;8.198;2024-03-17T09:12:41;100171.34;;;12.86;100.00
66588;BME280;53446;50.076;8.198;2024-03-17T09:14:41;100171.53;;;12.96;100.00
66588;BME280;53446;50.076;8.198;2024-03-17T09:16:42;100172.00;;;12.90;100.00
66588;BME280;53446;50.076;8.198;2024-03-17T09:18:42;100171.16;;;12.77;100.00
66588;BME280;53446;50.076;8.198;2024-03-17T09:20:42;100167.28;;;12.92;100.00
66588;BME280;53446;50.076;8.198;2024-03-17T09:22:42;100172.59;;;13.06;100.00
66588;BME280;53446;50.076;8.198;2024-03-17T09:24:43;100162.78;;;13.17;100.00
66588;BME280;53446;50.076;8.198;2024-03-17T09:26:43;100159.66;;;13.34;100.00
66588;BME280;53446;50.076;8.198;2024-03-17T09:28:44;100154.56;;;13.53;100.00
66588;BME280;53446;50.076;8.198;2024-03-17T09:30:47;100158.94;;;13.67;100.00
66588;BME280;53446;50.076;8.198;2024-03-17T09:32:47;100160.03;;;13.65;98.75
66588;BME280;53446;50.076;8.198;2024-03-17T09:34:48;100164.25;;;13.69;98.01
66588;BME280;53446;50.076;8.198;2024-03-17T09:36:48;100156.91;;;13.58;95.47
66588;BME280;53446;50.076;8.198;2024-03-17T09:38:48;100158.22;;;13.41;94.24
66588;BME280;53446;50.076;8.198;2024-03-17T09:40:49;100156.09;;;12.97;95.81
66588;BME280;53446;50.076;8.198;2024-03-17T09:42:52;100160.91;;;12.93;99.32
66588;BME280;53446;50.076;8.198;2024-03-17T09:44:53;100154.63;;;13.17;99.92
66588;BME280;53446;50.076;8.198;2024-03-17T09:46:56;100155.75;;;13.38;97.58
66588;BME280;53446;50.076;8.198;2024-03-17T09:48:57;100150.53;;;13.59;96.47
66588;BME280;53446;50.076;8.198;2024-03-17T09:51:02;100144.50;;;13.67;92.51
66588;BME280;53446;50.076;8.198;2024-03-17T09:53:04;100144.50;;;13.67;92.15
66588;BME280;53446;50.076;8.198;2024-03-17T09:55:17;100141.56;;;13.81;88.54
66588;BME280;53446;50.076;8.198;2024-03-17T09:57:22;100150.75;;;14.03;93.32
66588;BME280;53446;50.076;8.198;2024-03-17T09:59:22;100149.06;;;14.13;91.94
66588;BME280;53446;50.076;8.198;2024-03-17T10:01:22;100140.03;;;14.35;88.56
66588;BME280;53446;50.076;8.198;2024-03-17T10:05:44;100131.03;;;14.46;84.98
66588;BME280;53446;50.076;8.198;2024-03-17T10:07:45;100135.47;;;14.35;85.98
66588;BME280;53446;50.076;8.198;2024-03-17T10:09:45;100137.56;;;14.43;86.31
66588;BME280;53446;50.076;8.198;2024-03-17T10:11:45;100140.09;;;14.57;86.08
66588;BME280;53446;50.076;8.198;2024-03-17T10:13:59;100144.47;;;14.92;85.79
66588;BME280;53446;50.076;8.198;2024-03-17T10:15:59;100144.47;;;14.92;84.04
66588;BME280;53446;50.076;8.198;2024-03-17T10:18:00;100147.06;;;14.94;84.17
66588;BME280;53446;50.076;8.198;2024-03-17T10:20:17;100146.81;;;14.97;82.79
66588;BME280;53446;50.076;8.198;2024-03-17T10:22:17;100135.91;;;15.08;84.94
66588;BME280;53446;50.076;8.198;2024-03-17T10:24:22;100137.84;;;15.17;85.03
66588;BME280;53446;50.076;8.198;2024-03-17T10:26:23;100138.06;;;15.25;84.53
66588;BME280;53446;50.076;8.198;2024-03-17T10:28:23;100141.13;;;15.32;85.64
66588;BME280;53446;50.076;8.198;2024-03-17T10:30:24;100142.75;;;15.35;85.14
66588;BME280;53446;50.076;8.198;2024-03-17T10:32:26;100143.75;;;15.34;84.96
66588;BME280;53446;50.076;8.198;2024-03-17T10:34:27;100138.44;;;15.21;84.10